sensor_id;sensor_type;location;lat;lon;timestamp;P1;durP1;ratioP1;P2;durP2;ratioP2
2326;SDS011;1174;51.588;7.328;2022-08-14T00:01:16;7.90;;;4.57;;
2326;SDS011;1174;51.588;7.328;2022-08-14T00:03:42;6.40;;;4.80;;
2326;SDS011;1174;51.588;7.328;2022-08-14T00:06:09;5.80;;;5.17;;
2326;SDS011;1174;51.588;7.328;2022-08-14T00:08:37;6.57;;;5.30;;
2326;SDS011;1174;51.588;7.328;2022-08-14T00:11:04;5.60;;;4.90;;
2326;SDS011;1174;51.588;7.328;2022-08-14T00:13:31;5.50;;;4.40;;
2326;SDS011;1174;51.588;7.328;2022-08-14T00:15:59;5.97;;;4.70;;
2326;SDS011;1174;51.588;7.328;2022-08-14T00:18:26;5.67;;;5.17;;
2326;SDS011;1174;51.588;7.328;2022-08-14T00:20:55;5.83;;;5.03;;
2326;SDS011;1174;51.588;7.328;2022-08-14T00:23:22;7.83;;;4.67;;
2326;SDS011;1174;51.588;7.328;2022-08-14T00:25:52;5.10;;;4.60;;
2326;SDS011;1174;51.588;7.328;2022-08-14T00:28:21;5.13;;;4.63;;
2326;SDS011;1174;51.588;7.328;2022-08-14T00:30:54;5.47;;;4.87;;
2326;SDS011;1174;51.588;7.328;2022-08-14T00:33:25;6.47;;;5.87;;
2326;SDS011;1174;51.588;7.328;2022-08-14T00:35:53;5.03;;;4.53;;
2326;SDS011;1174;51.588;7.328;2022-08-14T00:38:20;6.40;;;5.10;;
2326;SDS011;1174;51.588;7.328;2022-08-14T00:40:47;5.17;;;4.60;;
2326;SDS011;1174;51.588;7.328;2022-08-14T00:43:16;5.93;;;5.30;;
2326;SDS011;1174;51.588;7.328;2022-08-14T00:45:43;6.17;;;5.10;;
2326;SDS011;1174;51.588;7.328;2022-08-14T00:48:10;4.67;;;4.27;;
2326;SDS011;1174;51.588;7.328;2022-08-14T00:50:37;7.37;;;5.03;;
2326;SDS011;1174;51.588;7.328;2022-08-14T00:53:05;5.43;;;4.90;;
2326;SDS011;1174;51.588;7.328;2022-08-14T00:55:34;5.27;;;4.73;;
2326;SDS011;1174;51.588;7.328;2022-08-14T00:58:06;7.47;;;5.30;;
2326;SDS011;1174;51.588;7.328;2022-08-14T01:00:51;14.70;;;5.73;;
2326;SDS011;1174;51.588;7.328;2022-08-14T01:03:19;6.23;;;5.33;;
2326;SDS011;1174;51.588;7.328;2022-08-14T01:05:47;6.30;;;5.40;;
2326;SDS011;1174;51.588;7.328;2022-08-14T01:08:16;6.23;;;4.63;;
2326;SDS011;1174;51.588;7.328;2022-08-14T01:10:45;7.27;;;6.10;;
2326;SDS011;1174;51.588;7.328;2022-08-14T01:13:17;5.53;;;5.03;;
2326;SDS011;1174;51.588;7.328;2022-08-14T01:15:46;6.83;;;5.90;;
2326;SDS011;1174;51.588;7.328;2022-08-14T01:18:16;5.93;;;5.23;;
2326;SDS011;1174;51.588;7.328;2022-08-14T01:21:01;6.80;;;5.27;;
2326;SDS011;1174;51.588;7.328;2022-08-14T01:23:32;5.13;;;4.70;;
2326;SDS011;1174;51.588;7.328;2022-08-14T01:26:02;5.73;;;5.03;;
2326;SDS011;1174;51.588;7.328;2022-08-14T01:28:30;6.97;;;6.27;;
2326;SDS011;1174;51.588;7.328;2022-08-14T01:31:02;5.47;;;4.93;;
2326;SDS011;1174;51.588;7.328;2022-08-14T01:33:33;6.83;;;5.80;;
2326;SDS011;1174;51.588;7.328;2022-08-14T01:36:05;5.10;;;4.60;;
2326;SDS011;1174;51.588;7.328;2022-08-14T01:38:35;5.63;;;5.13;;
2326;SDS011;1174;51.588;7.328;2022-08-14T01:41:04;6.07;;;5.40;;
2326;SDS011;1174;51.588;7.328;2022-08-14T01:43:41;8.20;;;5.83;;
2326;SDS011;1174;51.588;7.328;2022-08-14T01:46:09;9.37;;;6.50;;
2326;SDS011;1174;51.588;7.328;2022-08-14T01:48:36;15.10;;;5.77;;
2326;SDS011;1174;51.588;7.328;2022-08-14T01:51:08;6.60;;;5.63;;
2326;SDS011;1174;51.588;7.328;2022-08-14T01:53:37;6.43;;;5.93;;
2326;SDS011;1174;51.588;7.328;2022-08-14T01:56:06;6.53;;;5.50;;
2326;SDS011;1174;51.588;7.328;2022-08-14T01:58:32;6.10;;;5.43;;
2326;SDS011;1174;51.588;7.328;2022-08-14T02:01:01;8.77;;;5.33;;
2326;SDS011;1174;51.588;7.328;2022-08-14T02:03:29;5.43;;;4.93;;
2326;SDS011;1174;51.588;7.328;2022-08-14T02:06:01;8.97;;;5.97;;
2326;SDS011;1174;51.588;7.328;2022-08-14T02:08:28;7.30;;;5.30;;
2326;SDS011;1174;51.588;7.328;2022-08-14T02:10:57;6.10;;;5.23;;
2326;SDS011;1174;51.588;7.328;2022-08-14T02:13:43;6.57;;;4.60;;
2326;SDS011;1174;51.588;7.328;2022-08-14T02:16:15;8.57;;;5.17;;
2326;SDS011;1174;51.588;7.328;2022-08-14T02:18:43;7.27;;;6.03;;
2326;SDS011;1174;51.588;7.328;2022-08-14T02:21:10;7.80;;;5.00;;
2326;SDS011;1174;51.588;7.328;2022-08-14T02:23:38;7.37;;;5.47;;
2326;SDS011;1174;51.588;7.328;2022-08-14T02:26:14;6.63;;;5.73;;
2326;SDS011;1174;51.588;7.328;2022-08-14T02:28:45;9.20;;;6.40;;
2326;SDS011;1174;51.588;7.328;2022-08-14T02:31:13;6.33;;;5.33;;
2326;SDS011;1174;51.588;7.328;2022-08-14T02:33:40;5.97;;;5.37;;
2326;SDS011;1174;51.588;7.328;2022-08-14T02:36:08;7.50;;;6.17;;
2326;SDS011;1174;51.588;7.328;2022-08-14T02:38:37;5.53;;;4.97;;
2326;SDS011;1174;51.588;7.328;2022-08-14T02:41:07;11.20;;;5.60;;
2326;SDS011;1174;51.588;7.328;2022-08-14T02:43:36;6.87;;;6.17;;
2326;SDS011;1174;51.588;7.328;2022-08-14T02:46:05;8.70;;;6.40;;
2326;SDS011;1174;51.588;7.328;2022-08-14T02:48:34;7.50;;;5.73;;
2326;SDS011;1174;51.588;7.328;2022-08-14T02:51:03;11.23;;;6.23;;
2326;SDS011;1174;51.588;7.328;2022-08-14T02:53:32;7.83;;;6.57;;
2326;SDS011;1174;51.588;7.328;2022-08-14T02:55:59;9.37;;;6.90;;
2326;SDS011;1174;51.588;7.328;2022-08-14T02:58:28;7.87;;;6.63;;
2326;SDS011;1174;51.588;7.328;2022-08-14T03:00:57;6.30;;;5.70;;
2326;SDS011;1174;51.588;7.328;2022-08-14T03:03:24;8.50;;;6.13;;
2326;SDS011;1174;51.588;7.328;2022-08-14T03:05:51;10.43;;;6.93;;
2326;SDS011;1174;51.588;7.328;2022-08-14T03:08:19;6.13;;;5.60;;
2326;SDS011;1174;51.588;7.328;2022-08-14T03:10:46;6.67;;;5.90;;
2326;SDS011;1174;51.588;7.328;2022-08-14T03:13:13;7.40;;;5.40;;
2326;SDS011;1174;51.588;7.328;2022-08-14T03:15:40;7.87;;;7.00;;
2326;SDS011;1174;51.588;7.328;2022-08-14T03:18:12;8.87;;;6.80;;
2326;SDS011;1174;51.588;7.328;2022-08-14T03:20:40;6.47;;;5.30;;
2326;SDS011;1174;51.588;7.328;2022-08-14T03:23:06;9.30;;;6.30;;
2326;SDS011;1174;51.588;7.328;2022-08-14T03:25:33;7.20;;;6.50;;
2326;SDS011;1174;51.588;7.328;2022-08-14T03:28:02;6.60;;;5.50;;
2326;SDS011;1174;51.588;7.328;2022-08-14T03:30:31;7.73;;;6.67;;
2326;SDS011;1174;51.588;7.328;2022-08-14T03:32:58;11.53;;;9.07;;
2326;SDS011;1174;51.588;7.328;2022-08-14T03:35:27;7.77;;;6.40;;
2326;SDS011;1174;51.588;7.328;2022-08-14T03:37:55;7.23;;;6.03;;
2326;SDS011;1174;51.588;7.328;2022-08-14T03:40:29;7.97;;;6.37;;
2326;SDS011;1174;51.588;7.328;2022-08-14T03:42:55;7.27;;;6.57;;
2326;SDS011;1174;51.588;7.328;2022-08-14T03:45:23;8.10;;;6.70;;
2326;SDS011;1174;51.588;7.328;2022-08-14T03:47:50;8.80;;;7.20;;
2326;SDS011;1174;51.588;7.328;2022-08-14T03:50:16;10.90;;;6.50;;
2326;SDS011;1174;51.588;7.328;2022-08-14T03:52:45;7.27;;;6.57;;
2326;SDS011;1174;51.588;7.328;2022-08-14T03:55:12;8.10;;;6.77;;
2326;SDS011;1174;51.588;7.328;2022-08-14T03:57:39;8.53;;;6.30;;
2326;SDS011;1174;51.588;7.328;2022-08-14T04:00:08;12.70;;;7.67;;
2326;SDS011;1174;51.588;7.328;2022-08-14T04:02:37;8.20;;;7.00;;
2326;SDS011;1174;51.588;7.328;2022-08-14T04:05:06;9.23;;;6.50;;
2326;SDS011;1174;51.588;7.328;2022-08-14T04:07:34;10.20;;;6.27;;
2326;SDS011;1174;51.588;7.328;2022-08-14T04:10:05;8.23;;;7.40;;
2326;SDS011;1174;51.588;7.328;2022-08-14T04:12:33;12.40;;;7.40;;
2326;SDS011;1174;51.588;7.328;2022-08-14T04:15:00;6.47;;;5.73;;
2326;SDS011;1174;51.588;7.328;2022-08-14T04:17:27;8.30;;;7.50;;
2326;SDS011;1174;51.588;7.328;2022-08-14T04:19:54;8.03;;;7.07;;
2326;SDS011;1174;51.588;7.328;2022-08-14T04:22:21;18.00;;;16.63;;
2326;SDS011;1174;51.588;7.328;2022-08-14T04:24:48;15.13;;;8.17;;
2326;SDS011;1174;51.588;7.328;2022-08-14T04:27:18;7.70;;;6.90;;
2326;SDS011;1174;51.588;7.328;2022-08-14T04:29:47;11.43;;;7.73;;
2326;SDS011;1174;51.588;7.328;2022-08-14T04:32:14;7.17;;;6.30;;
2326;SDS011;1174;51.588;7.328;2022-08-14T04:34:41;7.87;;;7.07;;
2326;SDS011;1174;51.588;7.328;2022-08-14T04:37:08;9.50;;;7.33;;
2326;SDS011;1174;51.588;7.328;2022-08-14T04:39:52;9.07;;;7.70;;
2326;SDS011;1174;51.588;7.328;2022-08-14T04:42:39;6.90;;;6.20;;
2326;SDS011;1174;51.588;7.328;2022-08-14T04:45:36;6.73;;;5.90;;
2326;SDS011;1174;51.588;7.328;2022-08-14T04:48:05;10.90;;;8.10;;
2326;SDS011;1174;51.588;7.328;2022-08-14T04:50:43;8.40;;;6.50;;
2326;SDS011;1174;51.588;7.328;2022-08-14T04:53:11;7.20;;;6.20;;
2326;SDS011;1174;51.588;7.328;2022-08-14T04:55:40;8.73;;;7.77;;
2326;SDS011;1174;51.588;7.328;2022-08-14T04:58:10;7.77;;;6.60;;
2326;SDS011;1174;51.588;7.328;2022-08-14T05:00:37;7.87;;;6.50;;
2326;SDS011;1174;51.588;7.328;2022-08-14T05:03:04;7.83;;;6.70;;
2326;SDS011;1174;51.588;7.328;2022-08-14T05:05:31;9.60;;;7.10;;
2326;SDS011;1174;51.588;7.328;2022-08-14T05:08:02;8.30;;;7.47;;
2326;SDS011;1174;51.588;7.328;2022-08-14T05:10:33;9.03;;;7.30;;
2326;SDS011;1174;51.588;7.328;2022-08-14T05:13:00;7.97;;;6.63;;
2326;SDS011;1174;51.588;7.328;2022-08-14T05:15:30;7.80;;;7.00;;
2326;SDS011;1174;51.588;7.328;2022-08-14T05:18:00;10.17;;;7.90;;
2326;SDS011;1174;51.588;7.328;2022-08-14T05:20:27;8.37;;;7.53;;
2326;SDS011;1174;51.588;7.328;2022-08-14T05:22:54;7.60;;;6.33;;
2326;SDS011;1174;51.588;7.328;2022-08-14T05:25:23;8.47;;;6.83;;
2326;SDS011;1174;51.588;7.328;2022-08-14T05:27:50;8.20;;;6.83;;
2326;SDS011;1174;51.588;7.328;2022-08-14T05:30:17;9.80;;;7.63;;
2326;SDS011;1174;51.588;7.328;2022-08-14T05:32:45;9.10;;;7.53;;
2326;SDS011;1174;51.588;7.328;2022-08-14T05:35:12;8.97;;;7.27;;
2326;SDS011;1174;51.588;7.328;2022-08-14T05:37:39;7.70;;;6.70;;
2326;SDS011;1174;51.588;7.328;2022-08-14T05:40:06;10.23;;;7.50;;
2326;SDS011;1174;51.588;7.328;2022-08-14T05:42:35;9.40;;;7.40;;
2326;SDS011;1174;51.588;7.328;2022-08-14T05:45:03;10.30;;;7.90;;
2326;SDS011;1174;51.588;7.328;2022-08-14T05:47:31;9.40;;;7.70;;
2326;SDS011;1174;51.588;7.328;2022-08-14T05:50:05;7.60;;;6.90;;
2326;SDS011;1174;51.588;7.328;2022-08-14T05:52:33;8.57;;;6.90;;
2326;SDS011;1174;51.588;7.328;2022-08-14T05:55:00;8.73;;;7.93;;
2326;SDS011;1174;51.588;7.328;2022-08-14T05:57:28;9.30;;;7.40;;
2326;SDS011;1174;51.588;7.328;2022-08-14T05:59:57;9.87;;;8.60;;
2326;SDS011;1174;51.588;7.328;2022-08-14T06:02:24;12.93;;;9.17;;
2326;SDS011;1174;51.588;7.328;2022-08-14T06:04:51;8.97;;;7.90;;
2326;SDS011;1174;51.588;7.328;2022-08-14T06:07:19;7.83;;;7.03;;
2326;SDS011;1174;51.588;7.328;2022-08-14T06:09:46;7.87;;;6.90;;
2326;SDS011;1174;51.588;7.328;2022-08-14T06:12:12;10.80;;;9.70;;
2326;SDS011;1174;51.588;7.328;2022-08-14T06:14:39;9.57;;;8.47;;
2326;SDS011;1174;51.588;7.328;2022-08-14T06:17:07;8.43;;;7.07;;
2326;SDS011;1174;51.588;7.328;2022-08-14T06:19:34;8.23;;;6.40;;
2326;SDS011;1174;51.588;7.328;2022-08-14T06:22:00;8.30;;;6.80;;
2326;SDS011;1174;51.588;7.328;2022-08-14T06:24:29;10.50;;;8.50;;
2326;SDS011;1174;51.588;7.328;2022-08-14T06:26:56;11.90;;;8.37;;
2326;SDS011;1174;51.588;7.328;2022-08-14T06:29:23;8.47;;;6.70;;
2326;SDS011;1174;51.588;7.328;2022-08-14T06:31:50;7.93;;;6.80;;
2326;SDS011;1174;51.588;7.328;2022-08-14T06:34:16;8.57;;;5.87;;
2326;SDS011;1174;51.588;7.328;2022-08-14T06:36:43;12.50;;;6.60;;
2326;SDS011;1174;51.588;7.328;2022-08-14T06:39:10;7.53;;;6.70;;
2326;SDS011;1174;51.588;7.328;2022-08-14T06:41:38;8.40;;;7.07;;
2326;SDS011;1174;51.588;7.328;2022-08-14T06:44:07;7.20;;;6.50;;
2326;SDS011;1174;51.588;7.328;2022-08-14T06:46:34;7.57;;;6.87;;
2326;SDS011;1174;51.588;7.328;2022-08-14T06:49:01;8.67;;;6.57;;
2326;SDS011;1174;51.588;7.328;2022-08-14T06:51:28;7.77;;;6.97;;
2326;SDS011;1174;51.588;7.328;2022-08-14T06:53:55;7.13;;;6.43;;
2326;SDS011;1174;51.588;7.328;2022-08-14T06:56:22;11.43;;;8.17;;
2326;SDS011;1174;51.588;7.328;2022-08-14T06:58:50;8.47;;;7.67;;
2326;SDS011;1174;51.588;7.328;2022-08-14T07:01:17;6.30;;;5.70;;
2326;SDS011;1174;51.588;7.328;2022-08-14T07:04:09;7.57;;;6.27;;
2326;SDS011;1174;51.588;7.328;2022-08-14T07:06:54;8.27;;;7.47;;
2326;SDS011;1174;51.588;7.328;2022-08-14T07:09:20;8.00;;;7.30;;
2326;SDS011;1174;51.588;7.328;2022-08-14T07:11:48;11.27;;;7.20;;
2326;SDS011;1174;51.588;7.328;2022-08-14T07:14:17;7.20;;;6.50;;
2326;SDS011;1174;51.588;7.328;2022-08-14T07:16:43;6.97;;;6.27;;
2326;SDS011;1174;51.588;7.328;2022-08-14T07:19:10;7.30;;;6.27;;
2326;SDS011;1174;51.588;7.328;2022-08-14T07:21:37;6.90;;;6.20;;
2326;SDS011;1174;51.588;7.328;2022-08-14T07:24:04;9.83;;;6.63;;
2326;SDS011;1174;51.588;7.328;2022-08-14T07:26:32;8.50;;;7.10;;
2326;SDS011;1174;51.588;7.328;2022-08-14T07:28:59;8.10;;;7.30;;
2326;SDS011;1174;51.588;7.328;2022-08-14T07:31:27;7.03;;;6.20;;
2326;SDS011;1174;51.588;7.328;2022-08-14T07:33:54;6.80;;;6.23;;
2326;SDS011;1174;51.588;7.328;2022-08-14T07:36:21;7.10;;;6.40;;
2326;SDS011;1174;51.588;7.328;2022-08-14T07:38:48;10.20;;;7.47;;
2326;SDS011;1174;51.588;7.328;2022-08-14T07:41:15;8.93;;;6.53;;
2326;SDS011;1174;51.588;7.328;2022-08-14T07:43:43;6.30;;;5.70;;
2326;SDS011;1174;51.588;7.328;2022-08-14T07:46:10;7.10;;;6.40;;
2326;SDS011;1174;51.588;7.328;2022-08-14T07:48:40;7.23;;;6.53;;
2326;SDS011;1174;51.588;7.328;2022-08-14T07:51:08;8.03;;;6.57;;
2326;SDS011;1174;51.588;7.328;2022-08-14T07:53:35;6.93;;;6.23;;
2326;SDS011;1174;51.588;7.328;2022-08-14T07:56:02;7.63;;;6.93;;
2326;SDS011;1174;51.588;7.328;2022-08-14T07:58:29;7.63;;;6.93;;
2326;SDS011;1174;51.588;7.328;2022-08-14T08:00:57;9.27;;;7.63;;
2326;SDS011;1174;51.588;7.328;2022-08-14T08:03:27;7.00;;;5.87;;
2326;SDS011;1174;51.588;7.328;2022-08-14T08:05:58;6.67;;;5.60;;
2326;SDS011;1174;51.588;7.328;2022-08-14T08:08:26;6.13;;;5.47;;
2326;SDS011;1174;51.588;7.328;2022-08-14T08:10:54;6.27;;;4.80;;
2326;SDS011;1174;51.588;7.328;2022-08-14T08:13:22;10.03;;;6.73;;
2326;SDS011;1174;51.588;7.328;2022-08-14T08:15:51;6.63;;;6.03;;
2326;SDS011;1174;51.588;7.328;2022-08-14T08:18:20;7.53;;;6.60;;
2326;SDS011;1174;51.588;7.328;2022-08-14T08:20:49;7.17;;;6.43;;
2326;SDS011;1174;51.588;7.328;2022-08-14T08:23:19;6.80;;;6.10;;
2326;SDS011;1174;51.588;7.328;2022-08-14T08:25:47;8.23;;;5.77;;
2326;SDS011;1174;51.588;7.328;2022-08-14T08:28:17;7.73;;;7.03;;
2326;SDS011;1174;51.588;7.328;2022-08-14T08:30:46;6.17;;;5.57;;
2326;SDS011;1174;51.588;7.328;2022-08-14T08:33:16;8.23;;;6.60;;
2326;SDS011;1174;51.588;7.328;2022-08-14T08:35:44;10.43;;;6.67;;
2326;SDS011;1174;51.588;7.328;2022-08-14T08:38:12;6.87;;;6.33;;
2326;SDS011;1174;51.588;7.328;2022-08-14T08:40:43;5.97;;;5.47;;
2326;SDS011;1174;51.588;7.328;2022-08-14T08:43:15;6.50;;;6.00;;
2326;SDS011;1174;51.588;7.328;2022-08-14T08:45:51;6.60;;;6.10;;
2326;SDS011;1174;51.588;7.328;2022-08-14T08:48:20;6.07;;;5.57;;
2326;SDS011;1174;51.588;7.328;2022-08-14T08:50:52;6.67;;;6.10;;
2326;SDS011;1174;51.588;7.328;2022-08-14T08:53:19;8.00;;;5.53;;
2326;SDS011;1174;51.588;7.328;2022-08-14T08:55:47;8.30;;;5.93;;
2326;SDS011;1174;51.588;7.328;2022-08-14T08:58:15;6.83;;;6.20;;
2326;SDS011;1174;51.588;7.328;2022-08-14T09:00:45;7.43;;;6.47;;
2326;SDS011;1174;51.588;7.328;2022-08-14T09:03:14;6.57;;;6.07;;
2326;SDS011;1174;51.588;7.328;2022-08-14T09:05:48;6.13;;;5.63;;
2326;SDS011;1174;51.588;7.328;2022-08-14T09:08:17;6.10;;;5.47;;
2326;SDS011;1174;51.588;7.328;2022-08-14T09:10:47;6.60;;;5.90;;
2326;SDS011;1174;51.588;7.328;2022-08-14T09:13:14;6.60;;;6.10;;
2326;SDS011;1174;51.588;7.328;2022-08-14T09:15:42;6.20;;;5.70;;
2326;SDS011;1174;51.588;7.328;2022-08-14T09:18:11;6.50;;;5.90;;
2326;SDS011;1174;51.588;7.328;2022-08-14T09:20:39;6.00;;;5.40;;
2326;SDS011;1174;51.588;7.328;2022-08-14T09:23:07;6.17;;;4.70;;
2326;SDS011;1174;51.588;7.328;2022-08-14T09:25:35;6.10;;;5.60;;
2326;SDS011;1174;51.588;7.328;2022-08-14T09:28:07;6.27;;;5.70;;
2326;SDS011;1174;51.588;7.328;2022-08-14T09:30:35;6.07;;;5.53;;
2326;SDS011;1174;51.588;7.328;2022-08-14T09:33:07;6.30;;;5.70;;
2326;SDS011;1174;51.588;7.328;2022-08-14T09:35:47;5.97;;;5.53;;
2326;SDS011;1174;51.588;7.328;2022-08-14T09:38:23;6.53;;;6.00;;
2326;SDS011;1174;51.588;7.328;2022-08-14T09:40:55;6.03;;;5.43;;
2326;SDS011;1174;51.588;7.328;2022-08-14T09:43:32;4.77;;;4.37;;
2326;SDS011;1174;51.588;7.328;2022-08-14T09:46:08;7.07;;;5.10;;
2326;SDS011;1174;51.588;7.328;2022-08-14T09:48:36;6.90;;;5.00;;
2326;SDS011;1174;51.588;7.328;2022-08-14T09:51:04;6.37;;;5.77;;
2326;SDS011;1174;51.588;7.328;2022-08-14T09:53:40;6.30;;;5.70;;
2326;SDS011;1174;51.588;7.328;2022-08-14T09:56:08;6.90;;;6.30;;
2326;SDS011;1174;51.588;7.328;2022-08-14T09:58:38;6.03;;;5.50;;
2326;SDS011;1174;51.588;7.328;2022-08-14T10:01:07;6.00;;;5.53;;
2326;SDS011;1174;51.588;7.328;2022-08-14T10:03:37;5.50;;;5.00;;
2326;SDS011;1174;51.588;7.328;2022-08-14T10:06:15;5.80;;;5.17;;
2326;SDS011;1174;51.588;7.328;2022-08-14T10:08:44;5.87;;;5.37;;
2326;SDS011;1174;51.588;7.328;2022-08-14T10:11:17;5.10;;;4.70;;
2326;SDS011;1174;51.588;7.328;2022-08-14T10:13:48;5.03;;;4.63;;
2326;SDS011;1174;51.588;7.328;2022-08-14T10:16:18;5.30;;;4.80;;
2326;SDS011;1174;51.588;7.328;2022-08-14T10:18:47;6.03;;;5.53;;
2326;SDS011;1174;51.588;7.328;2022-08-14T10:21:16;8.23;;;6.20;;
2326;SDS011;1174;51.588;7.328;2022-08-14T10:23:44;5.83;;;5.33;;
2326;SDS011;1174;51.588;7.328;2022-08-14T10:26:14;5.43;;;4.93;;
2326;SDS011;1174;51.588;7.328;2022-08-14T10:28:44;5.47;;;5.07;;
2326;SDS011;1174;51.588;7.328;2022-08-14T10:31:21;5.80;;;5.30;;
2326;SDS011;1174;51.588;7.328;2022-08-14T10:33:59;4.77;;;4.47;;
2326;SDS011;1174;51.588;7.328;2022-08-14T10:36:28;5.73;;;5.27;;
2326;SDS011;1174;51.588;7.328;2022-08-14T10:38:57;5.13;;;4.73;;
2326;SDS011;1174;51.588;7.328;2022-08-14T10:41:35;5.67;;;5.17;;
2326;SDS011;1174;51.588;7.328;2022-08-14T10:44:05;5.63;;;5.00;;
2326;SDS011;1174;51.588;7.328;2022-08-14T10:46:43;6.20;;;5.40;;
2326;SDS011;1174;51.588;7.328;2022-08-14T10:49:15;5.73;;;5.00;;
2326;SDS011;1174;51.588;7.328;2022-08-14T10:51:57;6.03;;;5.50;;
2326;SDS011;1174;51.588;7.328;2022-08-14T10:54:29;6.10;;;5.60;;
2326;SDS011;1174;51.588;7.328;2022-08-14T10:57:09;4.70;;;4.40;;
2326;SDS011;1174;51.588;7.328;2022-08-14T10:59:49;5.20;;;4.80;;
2326;SDS011;1174;51.588;7.328;2022-08-14T11:02:22;4.63;;;4.33;;
2326;SDS011;1174;51.588;7.328;2022-08-14T11:07:39;8.33;;;5.37;;
2326;SDS011;1174;51.588;7.328;2022-08-14T11:10:08;4.87;;;4.47;;
2326;SDS011;1174;51.588;7.328;2022-08-14T11:12:38;6.07;;;4.77;;
2326;SDS011;1174;51.588;7.328;2022-08-14T11:15:10;5.00;;;4.60;;
2326;SDS011;1174;51.588;7.328;2022-08-14T11:17:41;5.47;;;4.97;;
2326;SDS011;1174;51.588;7.328;2022-08-14T11:20:10;5.17;;;4.40;;
2326;SDS011;1174;51.588;7.328;2022-08-14T11:22:37;5.70;;;5.20;;
2326;SDS011;1174;51.588;7.328;2022-08-14T11:25:08;5.33;;;4.93;;
2326;SDS011;1174;51.588;7.328;2022-08-14T11:27:38;6.37;;;5.80;;
2326;SDS011;1174;51.588;7.328;2022-08-14T11:30:07;5.40;;;4.57;;
2326;SDS011;1174;51.588;7.328;2022-08-14T11:32:37;4.70;;;4.30;;
2326;SDS011;1174;51.588;7.328;2022-08-14T11:35:09;7.70;;;4.50;;
2326;SDS011;1174;51.588;7.328;2022-08-14T11:37:47;5.90;;;4.77;;
2326;SDS011;1174;51.588;7.328;2022-08-14T11:40:16;4.53;;;4.20;;
2326;SDS011;1174;51.588;7.328;2022-08-14T11:42:44;5.60;;;5.20;;
2326;SDS011;1174;51.588;7.328;2022-08-14T11:45:12;5.53;;;4.83;;
2326;SDS011;1174;51.588;7.328;2022-08-14T11:47:39;5.20;;;4.80;;
2326;SDS011;1174;51.588;7.328;2022-08-14T11:50:15;4.53;;;4.23;;
2326;SDS011;1174;51.588;7.328;2022-08-14T11:52:44;5.07;;;4.60;;
2326;SDS011;1174;51.588;7.328;2022-08-14T11:55:11;5.70;;;5.30;;
2326;SDS011;1174;51.588;7.328;2022-08-14T11:57:39;5.70;;;5.20;;
2326;SDS011;1174;51.588;7.328;2022-08-14T12:00:08;6.63;;;5.10;;
2326;SDS011;1174;51.588;7.328;2022-08-14T12:02:36;5.27;;;4.87;;
2326;SDS011;1174;51.588;7.328;2022-08-14T12:05:15;4.83;;;4.47;;
2326;SDS011;1174;51.588;7.328;2022-08-14T12:07:55;4.63;;;4.23;;
2326;SDS011;1174;51.588;7.328;2022-08-14T12:10:22;4.63;;;4.23;;
2326;SDS011;1174;51.588;7.328;2022-08-14T12:12:49;4.70;;;4.30;;
2326;SDS011;1174;51.588;7.328;2022-08-14T12:15:27;6.07;;;5.40;;
2326;SDS011;1174;51.588;7.328;2022-08-14T12:17:55;5.93;;;5.43;;
2326;SDS011;1174;51.588;7.328;2022-08-14T12:20:30;4.47;;;4.17;;
2326;SDS011;1174;51.588;7.328;2022-08-14T12:22:58;6.27;;;5.70;;
2326;SDS011;1174;51.588;7.328;2022-08-14T12:25:26;5.23;;;4.83;;
2326;SDS011;1174;51.588;7.328;2022-08-14T12:27:54;9.20;;;4.43;;
2326;SDS011;1174;51.588;7.328;2022-08-14T12:30:30;5.20;;;4.80;;
2326;SDS011;1174;51.588;7.328;2022-08-14T12:32:58;5.47;;;5.07;;
2326;SDS011;1174;51.588;7.328;2022-08-14T12:35:38;7.60;;;5.43;;
2326;SDS011;1174;51.588;7.328;2022-08-14T12:38:07;4.90;;;4.50;;
2326;SDS011;1174;51.588;7.328;2022-08-14T12:40:43;5.57;;;5.07;;
2326;SDS011;1174;51.588;7.328;2022-08-14T12:43:11;7.20;;;4.53;;
2326;SDS011;1174;51.588;7.328;2022-08-14T12:45:39;4.73;;;4.40;;
2326;SDS011;1174;51.588;7.328;2022-08-14T12:48:13;4.97;;;4.57;;
2326;SDS011;1174;51.588;7.328;2022-08-14T12:50:41;4.97;;;4.57;;
2326;SDS011;1174;51.588;7.328;2022-08-14T12:53:09;5.70;;;5.20;;
2326;SDS011;1174;51.588;7.328;2022-08-14T12:55:36;4.83;;;4.43;;
2326;SDS011;1174;51.588;7.328;2022-08-14T12:58:05;5.97;;;5.47;;
2326;SDS011;1174;51.588;7.328;2022-08-14T13:00:33;8.13;;;7.33;;
2326;SDS011;1174;51.588;7.328;2022-08-14T13:03:03;4.73;;;4.40;;
2326;SDS011;1174;51.588;7.328;2022-08-14T13:05:31;5.40;;;4.90;;
2326;SDS011;1174;51.588;7.328;2022-08-14T13:08:02;5.93;;;5.43;;
2326;SDS011;1174;51.588;7.328;2022-08-14T13:10:30;5.23;;;4.83;;
2326;SDS011;1174;51.588;7.328;2022-08-14T13:12:59;5.60;;;5.20;;
2326;SDS011;1174;51.588;7.328;2022-08-14T13:15:27;7.30;;;5.23;;
2326;SDS011;1174;51.588;7.328;2022-08-14T13:17:55;5.93;;;5.40;;
2326;SDS011;1174;51.588;7.328;2022-08-14T13:20:24;7.23;;;5.40;;
2326;SDS011;1174;51.588;7.328;2022-08-14T13:22:53;5.33;;;4.93;;
2326;SDS011;1174;51.588;7.328;2022-08-14T13:25:21;6.00;;;5.50;;
2326;SDS011;1174;51.588;7.328;2022-08-14T13:27:50;5.60;;;5.20;;
2326;SDS011;1174;51.588;7.328;2022-08-14T13:30:22;5.87;;;5.37;;
2326;SDS011;1174;51.588;7.328;2022-08-14T13:32:51;4.57;;;4.27;;
2326;SDS011;1174;51.588;7.328;2022-08-14T13:35:19;6.30;;;4.50;;
2326;SDS011;1174;51.588;7.328;2022-08-14T13:37:47;4.77;;;4.40;;
2326;SDS011;1174;51.588;7.328;2022-08-14T13:40:15;4.80;;;4.40;;
2326;SDS011;1174;51.588;7.328;2022-08-14T13:42:47;5.67;;;5.27;;
2326;SDS011;1174;51.588;7.328;2022-08-14T13:45:16;5.43;;;5.03;;
2326;SDS011;1174;51.588;7.328;2022-08-14T13:47:45;5.40;;;5.00;;
2326;SDS011;1174;51.588;7.328;2022-08-14T13:50:13;5.60;;;5.00;;
2326;SDS011;1174;51.588;7.328;2022-08-14T13:52:41;4.57;;;4.17;;
2326;SDS011;1174;51.588;7.328;2022-08-14T13:55:10;5.40;;;5.00;;
2326;SDS011;1174;51.588;7.328;2022-08-14T13:57:41;4.23;;;3.90;;
2326;SDS011;1174;51.588;7.328;2022-08-14T14:00:11;5.20;;;4.73;;
2326;SDS011;1174;51.588;7.328;2022-08-14T14:02:39;5.97;;;5.47;;
2326;SDS011;1174;51.588;7.328;2022-08-14T14:05:08;5.43;;;5.03;;
2326;SDS011;1174;51.588;7.328;2022-08-14T14:07:36;6.73;;;5.00;;
2326;SDS011;1174;51.588;7.328;2022-08-14T14:10:05;4.53;;;4.13;;
2326;SDS011;1174;51.588;7.328;2022-08-14T14:12:34;5.37;;;4.97;;
2326;SDS011;1174;51.588;7.328;2022-08-14T14:15:02;4.83;;;4.43;;
2326;SDS011;1174;51.588;7.328;2022-08-14T14:17:32;5.53;;;4.63;;
2326;SDS011;1174;51.588;7.328;2022-08-14T14:20:02;4.47;;;4.10;;
2326;SDS011;1174;51.588;7.328;2022-08-14T14:22:30;5.63;;;5.13;;
2326;SDS011;1174;51.588;7.328;2022-08-14T14:24:57;6.17;;;5.67;;
2326;SDS011;1174;51.588;7.328;2022-08-14T14:27:24;4.90;;;4.47;;
2326;SDS011;1174;51.588;7.328;2022-08-14T14:29:53;5.90;;;5.40;;
2326;SDS011;1174;51.588;7.328;2022-08-14T14:32:28;5.07;;;4.67;;
2326;SDS011;1174;51.588;7.328;2022-08-14T14:34:59;4.90;;;4.50;;
2326;SDS011;1174;51.588;7.328;2022-08-14T14:37:27;5.23;;;4.73;;
2326;SDS011;1174;51.588;7.328;2022-08-14T14:39:55;5.00;;;4.60;;
2326;SDS011;1174;51.588;7.328;2022-08-14T14:42:24;5.53;;;5.00;;
2326;SDS011;1174;51.588;7.328;2022-08-14T14:44:52;5.30;;;4.80;;
2326;SDS011;1174;51.588;7.328;2022-08-14T14:47:26;5.97;;;5.47;;
2326;SDS011;1174;51.588;7.328;2022-08-14T14:49:54;5.23;;;4.83;;
2326;SDS011;1174;51.588;7.328;2022-08-14T14:52:23;5.53;;;5.13;;
2326;SDS011;1174;51.588;7.328;2022-08-14T14:54:50;5.73;;;5.23;;
2326;SDS011;1174;51.588;7.328;2022-08-14T14:57:17;5.30;;;4.80;;
2326;SDS011;1174;51.588;7.328;2022-08-14T14:59:45;4.80;;;4.13;;
2326;SDS011;1174;51.588;7.328;2022-08-14T15:02:15;5.20;;;4.80;;
2326;SDS011;1174;51.588;7.328;2022-08-14T15:04:56;5.73;;;5.03;;
2326;SDS011;1174;51.588;7.328;2022-08-14T15:07:24;5.20;;;4.73;;
2326;SDS011;1174;51.588;7.328;2022-08-14T15:09:51;4.73;;;4.33;;
2326;SDS011;1174;51.588;7.328;2022-08-14T15:12:17;5.37;;;4.87;;
2326;SDS011;1174;51.588;7.328;2022-08-14T15:14:45;5.63;;;5.13;;
2326;SDS011;1174;51.588;7.328;2022-08-14T15:17:12;4.60;;;4.20;;
2326;SDS011;1174;51.588;7.328;2022-08-14T15:19:39;7.37;;;4.80;;
2326;SDS011;1174;51.588;7.328;2022-08-14T15:22:06;5.30;;;4.90;;
2326;SDS011;1174;51.588;7.328;2022-08-14T15:24:34;4.30;;;3.90;;
2326;SDS011;1174;51.588;7.328;2022-08-14T15:27:02;5.73;;;5.20;;
2326;SDS011;1174;51.588;7.328;2022-08-14T15:29:31;4.87;;;4.47;;
2326;SDS011;1174;51.588;7.328;2022-08-14T15:32:04;5.33;;;4.87;;